Aegaeo — SXYY — position and weather

sailwx.info

Track history (hours):
 
Tides and Currents Weather Stations Pressure Air Temp Water Temp Dewpoint Dewpoint Depression Visibility Wind Speed Wind Dir Waves Ship Positions

Oceanographic research ship Aegaeo (Greece)

Detailed information on ship capabilities available from University of Delaware's Ocean Information Center.

Last reported at 2020-Jan-27 01:30 UTC. Time now 2020-Jan-28 19:01 UTC.
Position N 37°02' E 025°19'.

Length 61.5 m; beam 9.6 m; draft 2.9 m.

Type: Ship (hazmat cat A). MMSI: 237529000.

Date/timePositionNaut miles runAvg speedWind from/ knotsBaromVisibWave heightAir tempDewpointWater temp
2020-Jan-27 01:30N 37°02' E 025°19'3 0.1
2020-Jan-26 01:30N 37°05' E 025°19'2 3.3
2020-Jan-26 01:01N 37°03' E 025°18'4 0.1
2020-Jan-24 19:57N 36°59' E 025°19'2 3.8
2020-Jan-24 19:30N 37°01' E 025°18'13 3.6
2020-Jan-24 16:00N 37°13' E 025°13'5 5.1
2020-Jan-24 15:01N 37°13' E 025°07'1010.4
2020-Jan-24 14:01N 37°14' E 024°54'60 9.3
2020-Jan-24 07:30N 37°42' E 023°47'611.3
2020-Jan-24 07:00N 37°47' E 023°44'  
2020-Jan-21 11:31N 37°56' E 023°37'0 0.0
2020-Jan-21 10:31N 37°56' E 023°37'  
2020-Jan-18 21:57N 37°56' E 023°37'3 6.3
2020-Jan-18 21:31N 37°54' E 023°39'1110.7
2020-Jan-18 20:30N 37°45' E 023°46'1010.4
2020-Jan-18 19:30N 37°38' E 023°56'34 7.8
2020-Jan-18 15:08N 37°35' E 024°39'4 9.3
2020-Jan-18 14:40N 37°34' E 024°44'10 8.5
2020-Jan-18 13:30N 37°31' E 024°56'4 1.4
2020-Jan-18 10:31N 37°26' E 024°57'0 0.0
2020-Jan-18 10:00N 37°26' E 024°57'0 0.0
2020-Jan-18 06:31N 37°26' E 024°57'0 0.0
2020-Jan-18 06:00N 37°26' E 024°57'0 0.0
2020-Jan-18 04:00N 37°26' E 024°57'0 0.0
2020-Jan-18 02:00N 37°26' E 024°57'0 0.0
2020-Jan-18 01:00N 37°26' E 024°57'0 0.0
2020-Jan-18 00:00N 37°26' E 024°57'0 0.0
2020-Jan-17 20:00N 37°26' E 024°57'0 0.0
2020-Jan-17 18:30N 37°26' E 024°57'0 0.0
2020-Jan-17 17:30N 37°26' E 024°57'0 0.0
2020-Jan-17 16:30N 37°26' E 024°57'0 0.0
2020-Jan-17 15:00N 37°26' E 024°57'0 0.0
2020-Jan-17 11:30N 37°26' E 024°57'0 0.0
2020-Jan-17 08:30N 37°26' E 024°57'0 0.0
2020-Jan-17 07:00N 37°26' E 024°57'0 0.0
2020-Jan-17 05:00N 37°26' E 024°57'0 0.0
2020-Jan-17 04:30N 37°26' E 024°57'0 0.0
2020-Jan-17 04:00N 37°26' E 024°57'0 0.0
2020-Jan-17 02:30N 37°26' E 024°57'  
Track history (hours):
 
Tides and Currents Weather Stations Pressure Air Temp Water Temp Dewpoint Dewpoint Depression Visibility Wind Speed Wind Dir Waves Ship Positions

Oceanographic research ship Aegaeo (Greece)

Detailed information on ship capabilities available from University of Delaware's Ocean Information Center.

Last reported at 2020-Jan-27 01:30 UTC. Time now 2020-Jan-28 19:01 UTC.
Position N 37°02' E 025°19'.

Length 61.5 m; beam 9.6 m; draft 2.9 m.

Type: Ship (hazmat cat A). MMSI: 237529000.

Date/timePositionNaut miles runAvg speedWind from/ knotsBaromVisibWave heightAir tempDewpointWater temp
2020-Jan-27 01:30N 37°02' E 025°19'3 0.1
2020-Jan-26 01:30N 37°05' E 025°19'2 3.3
2020-Jan-26 01:01N 37°03' E 025°18'4 0.1
2020-Jan-24 19:57N 36°59' E 025°19'2 3.8
2020-Jan-24 19:30N 37°01' E 025°18'13 3.6
2020-Jan-24 16:00N 37°13' E 025°13'5 5.1
2020-Jan-24 15:01N 37°13' E 025°07'1010.4
2020-Jan-24 14:01N 37°14' E 024°54'60 9.3
2020-Jan-24 07:30N 37°42' E 023°47'611.3
2020-Jan-24 07:00N 37°47' E 023°44'  
2020-Jan-21 11:31N 37°56' E 023°37'0 0.0
2020-Jan-21 10:31N 37°56' E 023°37'  
2020-Jan-18 21:57N 37°56' E 023°37'3 6.3
2020-Jan-18 21:31N 37°54' E 023°39'1110.7
2020-Jan-18 20:30N 37°45' E 023°46'1010.4
2020-Jan-18 19:30N 37°38' E 023°56'34 7.8
2020-Jan-18 15:08N 37°35' E 024°39'4 9.3
2020-Jan-18 14:40N 37°34' E 024°44'10 8.5
2020-Jan-18 13:30N 37°31' E 024°56'4 1.4
2020-Jan-18 10:31N 37°26' E 024°57'0 0.0
2020-Jan-18 10:00N 37°26' E 024°57'0 0.0
2020-Jan-18 06:31N 37°26' E 024°57'0 0.0
2020-Jan-18 06:00N 37°26' E 024°57'0 0.0
2020-Jan-18 04:00N 37°26' E 024°57'0 0.0
2020-Jan-18 02:00N 37°26' E 024°57'0 0.0
2020-Jan-18 01:00N 37°26' E 024°57'0 0.0
2020-Jan-18 00:00N 37°26' E 024°57'0 0.0
2020-Jan-17 20:00N 37°26' E 024°57'0 0.0
2020-Jan-17 18:30N 37°26' E 024°57'0 0.0
2020-Jan-17 17:30N 37°26' E 024°57'0 0.0
2020-Jan-17 16:30N 37°26' E 024°57'0 0.0
2020-Jan-17 15:00N 37°26' E 024°57'0 0.0
2020-Jan-17 11:30N 37°26' E 024°57'0 0.0
2020-Jan-17 08:30N 37°26' E 024°57'0 0.0
2020-Jan-17 07:00N 37°26' E 024°57'0 0.0
2020-Jan-17 05:00N 37°26' E 024°57'0 0.0
2020-Jan-17 04:30N 37°26' E 024°57'0 0.0
2020-Jan-17 04:00N 37°26' E 024°57'0 0.0
2020-Jan-17 02:30N 37°26' E 024°57'  

Dump ship's entire track history